sensor_id;sensor_type;location;lat;lon;timestamp;P1;durP1;ratioP1;P2;durP2;ratioP2
60464;SDS011;46314;52.392;9.758;2024-03-08T00:02:25;25.42;;;18.17;;
60464;SDS011;46314;52.392;9.758;2024-03-08T00:04:51;43.95;;;17.95;;
60464;SDS011;46314;52.392;9.758;2024-03-08T00:07:17;23.70;;;16.70;;
60464;SDS011;46314;52.392;9.758;2024-03-08T00:09:44;28.60;;;18.48;;
60464;SDS011;46314;52.392;9.758;2024-03-08T00:12:12;26.05;;;17.73;;
60464;SDS011;46314;52.392;9.758;2024-03-08T00:14:38;33.38;;;18.65;;
60464;SDS011;46314;52.392;9.758;2024-03-08T00:17:04;24.73;;;17.30;;
60464;SDS011;46314;52.392;9.758;2024-03-08T00:19:31;26.13;;;18.35;;
60464;SDS011;46314;52.392;9.758;2024-03-08T00:21:57;26.40;;;17.55;;
60464;SDS011;46314;52.392;9.758;2024-03-08T00:24:24;27.42;;;18.23;;
60464;SDS011;46314;52.392;9.758;2024-03-08T00:26:50;23.98;;;18.42;;
60464;SDS011;46314;52.392;9.758;2024-03-08T00:29:18;25.02;;;18.35;;
60464;SDS011;46314;52.392;9.758;2024-03-08T00:31:45;26.20;;;16.75;;
60464;SDS011;46314;52.392;9.758;2024-03-08T00:34:11;26.98;;;18.98;;
60464;SDS011;46314;52.392;9.758;2024-03-08T00:36:37;27.52;;;19.00;;
60464;SDS011;46314;52.392;9.758;2024-03-08T00:39:04;29.52;;;17.77;;
60464;SDS011;46314;52.392;9.758;2024-03-08T00:41:30;26.42;;;18.60;;
60464;SDS011;46314;52.392;9.758;2024-03-08T00:43:57;28.83;;;18.08;;
60464;SDS011;46314;52.392;9.758;2024-03-08T00:46:24;28.38;;;18.83;;
60464;SDS011;46314;52.392;9.758;2024-03-08T00:48:51;28.15;;;18.67;;
60464;SDS011;46314;52.392;9.758;2024-03-08T00:51:17;30.42;;;18.75;;
60464;SDS011;46314;52.392;9.758;2024-03-08T00:53:44;25.67;;;17.77;;
60464;SDS011;46314;52.392;9.758;2024-03-08T00:56:10;29.58;;;19.58;;
60464;SDS011;46314;52.392;9.758;2024-03-08T00:58:37;28.60;;;17.85;;
60464;SDS011;46314;52.392;9.758;2024-03-08T01:01:03;30.17;;;19.45;;
60464;SDS011;46314;52.392;9.758;2024-03-08T01:03:31;25.20;;;17.90;;
60464;SDS011;46314;52.392;9.758;2024-03-08T01:05:58;25.65;;;18.55;;
60464;SDS011;46314;52.392;9.758;2024-03-08T01:08:24;27.02;;;18.83;;
60464;SDS011;46314;52.392;9.758;2024-03-08T01:10:51;28.70;;;18.63;;
60464;SDS011;46314;52.392;9.758;2024-03-08T01:13:17;27.65;;;18.70;;
60464;SDS011;46314;52.392;9.758;2024-03-08T01:15:43;27.45;;;18.75;;
60464;SDS011;46314;52.392;9.758;2024-03-08T01:18:10;25.88;;;17.55;;
60464;SDS011;46314;52.392;9.758;2024-03-08T01:20:38;27.98;;;17.20;;
60464;SDS011;46314;52.392;9.758;2024-03-08T01:23:04;29.80;;;18.60;;
60464;SDS011;46314;52.392;9.758;2024-03-08T01:25:31;26.15;;;18.75;;
60464;SDS011;46314;52.392;9.758;2024-03-08T01:27:57;31.27;;;18.90;;
60464;SDS011;46314;52.392;9.758;2024-03-08T01:30:23;26.00;;;19.45;;
60464;SDS011;46314;52.392;9.758;2024-03-08T01:32:50;28.08;;;18.48;;
60464;SDS011;46314;52.392;9.758;2024-03-08T01:35:16;27.08;;;17.80;;
60464;SDS011;46314;52.392;9.758;2024-03-08T01:37:44;28.70;;;18.88;;
60464;SDS011;46314;52.392;9.758;2024-03-08T01:40:11;27.73;;;19.55;;
60464;SDS011;46314;52.392;9.758;2024-03-08T01:42:37;27.98;;;19.13;;
60464;SDS011;46314;52.392;9.758;2024-03-08T01:45:06;26.33;;;18.85;;
60464;SDS011;46314;52.392;9.758;2024-03-08T01:47:33;28.13;;;18.75;;
60464;SDS011;46314;52.392;9.758;2024-03-08T01:50:00;27.52;;;18.67;;
60464;SDS011;46314;52.392;9.758;2024-03-08T01:52:28;28.55;;;18.38;;
60464;SDS011;46314;52.392;9.758;2024-03-08T01:54:56;26.25;;;18.08;;
60464;SDS011;46314;52.392;9.758;2024-03-08T01:57:24;25.90;;;17.48;;
60464;SDS011;46314;52.392;9.758;2024-03-08T01:59:51;29.15;;;20.00;;
60464;SDS011;46314;52.392;9.758;2024-03-08T02:02:17;27.00;;;18.42;;
60464;SDS011;46314;52.392;9.758;2024-03-08T02:04:44;27.80;;;18.65;;
60464;SDS011;46314;52.392;9.758;2024-03-08T02:07:10;30.15;;;18.45;;
60464;SDS011;46314;52.392;9.758;2024-03-08T02:09:37;28.67;;;19.48;;
60464;SDS011;46314;52.392;9.758;2024-03-08T02:12:05;29.25;;;19.17;;
60464;SDS011;46314;52.392;9.758;2024-03-08T02:14:32;30.48;;;18.98;;
60464;SDS011;46314;52.392;9.758;2024-03-08T02:17:00;30.13;;;19.40;;
60464;SDS011;46314;52.392;9.758;2024-03-08T02:19:26;31.92;;;19.25;;
60464;SDS011;46314;52.392;9.758;2024-03-08T02:21:54;28.33;;;18.77;;
60464;SDS011;46314;52.392;9.758;2024-03-08T02:24:21;31.55;;;20.48;;
60464;SDS011;46314;52.392;9.758;2024-03-08T02:26:48;28.15;;;18.58;;
60464;SDS011;46314;52.392;9.758;2024-03-08T02:29:14;27.92;;;18.27;;
60464;SDS011;46314;52.392;9.758;2024-03-08T02:31:41;28.95;;;19.75;;
60464;SDS011;46314;52.392;9.758;2024-03-08T02:34:07;30.98;;;20.23;;
60464;SDS011;46314;52.392;9.758;2024-03-08T02:36:34;29.25;;;19.20;;
60464;SDS011;46314;52.392;9.758;2024-03-08T02:39:02;31.10;;;19.05;;
60464;SDS011;46314;52.392;9.758;2024-03-08T02:41:29;30.48;;;19.05;;
60464;SDS011;46314;52.392;9.758;2024-03-08T02:43:55;30.70;;;20.60;;
60464;SDS011;46314;52.392;9.758;2024-03-08T02:46:22;29.05;;;19.27;;
60464;SDS011;46314;52.392;9.758;2024-03-08T02:48:48;24.50;;;18.65;;
60464;SDS011;46314;52.392;9.758;2024-03-08T02:51:15;30.30;;;20.23;;
60464;SDS011;46314;52.392;9.758;2024-03-08T02:53:41;31.58;;;20.38;;
60464;SDS011;46314;52.392;9.758;2024-03-08T02:56:09;31.65;;;19.63;;
60464;SDS011;46314;52.392;9.758;2024-03-08T02:58:35;28.52;;;19.15;;
60464;SDS011;46314;52.392;9.758;2024-03-08T03:01:02;29.15;;;19.00;;
60464;SDS011;46314;52.392;9.758;2024-03-08T03:03:29;32.38;;;21.77;;
60464;SDS011;46314;52.392;9.758;2024-03-08T03:05:55;29.88;;;19.73;;
60464;SDS011;46314;52.392;9.758;2024-03-08T03:08:22;32.20;;;19.73;;
60464;SDS011;46314;52.392;9.758;2024-03-08T03:10:48;28.27;;;19.83;;
60464;SDS011;46314;52.392;9.758;2024-03-08T03:13:16;29.13;;;17.73;;
60464;SDS011;46314;52.392;9.758;2024-03-08T03:15:42;36.92;;;20.20;;
60464;SDS011;46314;52.392;9.758;2024-03-08T03:18:09;29.85;;;19.60;;
60464;SDS011;46314;52.392;9.758;2024-03-08T03:20:35;27.95;;;19.15;;
60464;SDS011;46314;52.392;9.758;2024-03-08T03:23:02;28.38;;;18.90;;
60464;SDS011;46314;52.392;9.758;2024-03-08T03:25:29;32.20;;;20.38;;
60464;SDS011;46314;52.392;9.758;2024-03-08T03:27:55;29.13;;;18.05;;
60464;SDS011;46314;52.392;9.758;2024-03-08T03:30:23;32.55;;;19.88;;
60464;SDS011;46314;52.392;9.758;2024-03-08T03:32:50;28.30;;;19.35;;
60464;SDS011;46314;52.392;9.758;2024-03-08T03:35:16;26.65;;;20.13;;
60464;SDS011;46314;52.392;9.758;2024-03-08T03:37:43;30.25;;;20.08;;
60464;SDS011;46314;52.392;9.758;2024-03-08T03:40:10;31.65;;;20.13;;
60464;SDS011;46314;52.392;9.758;2024-03-08T03:42:37;30.58;;;19.45;;
60464;SDS011;46314;52.392;9.758;2024-03-08T03:45:04;33.67;;;20.90;;
60464;SDS011;46314;52.392;9.758;2024-03-08T03:47:33;28.25;;;18.60;;
60464;SDS011;46314;52.392;9.758;2024-03-08T03:49:59;29.88;;;19.75;;
60464;SDS011;46314;52.392;9.758;2024-03-08T03:52:26;30.88;;;20.05;;
60464;SDS011;46314;52.392;9.758;2024-03-08T03:54:52;33.75;;;20.38;;
60464;SDS011;46314;52.392;9.758;2024-03-08T03:57:19;36.55;;;21.58;;
60464;SDS011;46314;52.392;9.758;2024-03-08T03:59:45;28.33;;;19.08;;
60464;SDS011;46314;52.392;9.758;2024-03-08T04:02:11;30.30;;;19.90;;
60464;SDS011;46314;52.392;9.758;2024-03-08T04:04:39;33.60;;;20.45;;
60464;SDS011;46314;52.392;9.758;2024-03-08T04:07:06;32.45;;;21.13;;
60464;SDS011;46314;52.392;9.758;2024-03-08T04:09:34;32.65;;;21.30;;
60464;SDS011;46314;52.392;9.758;2024-03-08T04:12:01;30.42;;;19.58;;
60464;SDS011;46314;52.392;9.758;2024-03-08T04:14:27;29.15;;;19.23;;
60464;SDS011;46314;52.392;9.758;2024-03-08T04:16:54;30.45;;;21.27;;
60464;SDS011;46314;52.392;9.758;2024-03-08T04:19:20;29.88;;;19.88;;
60464;SDS011;46314;52.392;9.758;2024-03-08T04:21:48;31.65;;;20.52;;
60464;SDS011;46314;52.392;9.758;2024-03-08T04:24:14;30.08;;;20.17;;
60464;SDS011;46314;52.392;9.758;2024-03-08T04:26:41;30.77;;;19.92;;
60464;SDS011;46314;52.392;9.758;2024-03-08T04:29:07;31.80;;;19.70;;
60464;SDS011;46314;52.392;9.758;2024-03-08T04:31:34;27.63;;;19.02;;
60464;SDS011;46314;52.392;9.758;2024-03-08T04:34:00;30.20;;;19.85;;
60464;SDS011;46314;52.392;9.758;2024-03-08T04:36:27;28.85;;;19.92;;
60464;SDS011;46314;52.392;9.758;2024-03-08T04:38:54;34.67;;;21.58;;
60464;SDS011;46314;52.392;9.758;2024-03-08T04:41:21;31.13;;;20.05;;
60464;SDS011;46314;52.392;9.758;2024-03-08T04:43:47;33.08;;;21.00;;
60464;SDS011;46314;52.392;9.758;2024-03-08T04:46:14;31.48;;;21.13;;
60464;SDS011;46314;52.392;9.758;2024-03-08T04:48:40;31.27;;;21.52;;
60464;SDS011;46314;52.392;9.758;2024-03-08T04:51:07;32.10;;;20.30;;
60464;SDS011;46314;52.392;9.758;2024-03-08T04:53:33;31.10;;;20.98;;
60464;SDS011;46314;52.392;9.758;2024-03-08T04:56:01;32.67;;;21.52;;
60464;SDS011;46314;52.392;9.758;2024-03-08T04:58:28;31.23;;;20.73;;
60464;SDS011;46314;52.392;9.758;2024-03-08T05:00:54;34.08;;;22.10;;
60464;SDS011;46314;52.392;9.758;2024-03-08T05:03:21;30.58;;;20.70;;
60464;SDS011;46314;52.392;9.758;2024-03-08T05:05:47;32.78;;;21.83;;
60464;SDS011;46314;52.392;9.758;2024-03-08T05:08:13;32.35;;;20.33;;
60464;SDS011;46314;52.392;9.758;2024-03-08T05:10:40;33.20;;;21.58;;
60464;SDS011;46314;52.392;9.758;2024-03-08T05:13:08;32.55;;;20.60;;
60464;SDS011;46314;52.392;9.758;2024-03-08T05:15:34;33.10;;;21.58;;
60464;SDS011;46314;52.392;9.758;2024-03-08T05:18:00;29.23;;;20.73;;
60464;SDS011;46314;52.392;9.758;2024-03-08T05:20:27;34.47;;;20.33;;
60464;SDS011;46314;52.392;9.758;2024-03-08T05:22:54;33.65;;;20.70;;
60464;SDS011;46314;52.392;9.758;2024-03-08T05:25:20;34.95;;;23.58;;
60464;SDS011;46314;52.392;9.758;2024-03-08T05:27:46;32.67;;;21.88;;
60464;SDS011;46314;52.392;9.758;2024-03-08T05:30:14;29.65;;;20.08;;
60464;SDS011;46314;52.392;9.758;2024-03-08T05:32:41;35.58;;;22.42;;
60464;SDS011;46314;52.392;9.758;2024-03-08T05:35:08;32.50;;;22.42;;
60464;SDS011;46314;52.392;9.758;2024-03-08T05:37:34;37.05;;;21.30;;
60464;SDS011;46314;52.392;9.758;2024-03-08T05:40:01;33.40;;;20.25;;
60464;SDS011;46314;52.392;9.758;2024-03-08T05:42:27;34.05;;;22.63;;
60464;SDS011;46314;52.392;9.758;2024-03-08T05:44:53;34.97;;;22.80;;
60464;SDS011;46314;52.392;9.758;2024-03-08T05:47:21;33.00;;;21.83;;
60464;SDS011;46314;52.392;9.758;2024-03-08T05:49:48;34.80;;;23.30;;
60464;SDS011;46314;52.392;9.758;2024-03-08T05:52:14;34.33;;;22.25;;
60464;SDS011;46314;52.392;9.758;2024-03-08T05:54:41;34.33;;;22.33;;
60464;SDS011;46314;52.392;9.758;2024-03-08T05:57:07;36.33;;;21.95;;
60464;SDS011;46314;52.392;9.758;2024-03-08T05:59:33;37.63;;;23.85;;
60464;SDS011;46314;52.392;9.758;2024-03-08T06:02:00;35.78;;;22.02;;
60464;SDS011;46314;52.392;9.758;2024-03-08T06:04:28;34.03;;;22.10;;
60464;SDS011;46314;52.392;9.758;2024-03-08T06:06:54;37.13;;;23.27;;
60464;SDS011;46314;52.392;9.758;2024-03-08T06:09:21;40.30;;;23.35;;
60464;SDS011;46314;52.392;9.758;2024-03-08T06:11:47;34.80;;;22.25;;
60464;SDS011;46314;52.392;9.758;2024-03-08T06:14:14;34.83;;;23.17;;
60464;SDS011;46314;52.392;9.758;2024-03-08T06:16:40;33.72;;;21.42;;
60464;SDS011;46314;52.392;9.758;2024-03-08T06:19:07;34.05;;;21.67;;
60464;SDS011;46314;52.392;9.758;2024-03-08T06:21:34;32.38;;;22.52;;
60464;SDS011;46314;52.392;9.758;2024-03-08T06:24:01;35.40;;;23.10;;
60464;SDS011;46314;52.392;9.758;2024-03-08T06:26:28;30.15;;;21.88;;
60464;SDS011;46314;52.392;9.758;2024-03-08T06:28:56;36.80;;;24.25;;
60464;SDS011;46314;52.392;9.758;2024-03-08T06:31:23;38.05;;;23.75;;
60464;SDS011;46314;52.392;9.758;2024-03-08T06:33:50;35.70;;;23.15;;
60464;SDS011;46314;52.392;9.758;2024-03-08T06:36:17;37.17;;;23.48;;
60464;SDS011;46314;52.392;9.758;2024-03-08T06:38:45;39.63;;;23.83;;
60464;SDS011;46314;52.392;9.758;2024-03-08T06:41:11;35.05;;;22.30;;
60464;SDS011;46314;52.392;9.758;2024-03-08T06:43:38;34.67;;;22.92;;
60464;SDS011;46314;52.392;9.758;2024-03-08T06:46:04;33.33;;;21.05;;
60464;SDS011;46314;52.392;9.758;2024-03-08T06:48:30;37.10;;;23.02;;
60464;SDS011;46314;52.392;9.758;2024-03-08T06:50:57;35.20;;;23.33;;
60464;SDS011;46314;52.392;9.758;2024-03-08T06:53:24;36.72;;;23.05;;
60464;SDS011;46314;52.392;9.758;2024-03-08T06:55:55;38.00;;;23.25;;
60464;SDS011;46314;52.392;9.758;2024-03-08T06:58:21;36.47;;;23.50;;
60464;SDS011;46314;52.392;9.758;2024-03-08T07:00:48;35.50;;;22.50;;
60464;SDS011;46314;52.392;9.758;2024-03-08T07:03:14;36.17;;;25.10;;
60464;SDS011;46314;52.392;9.758;2024-03-08T07:05:41;35.50;;;23.95;;
60464;SDS011;46314;52.392;9.758;2024-03-08T07:08:07;39.55;;;22.02;;
60464;SDS011;46314;52.392;9.758;2024-03-08T07:10:33;36.53;;;23.90;;
60464;SDS011;46314;52.392;9.758;2024-03-08T07:13:01;37.78;;;25.73;;
60464;SDS011;46314;52.392;9.758;2024-03-08T07:15:28;38.50;;;26.30;;
60464;SDS011;46314;52.392;9.758;2024-03-08T07:17:54;38.10;;;25.35;;
60464;SDS011;46314;52.392;9.758;2024-03-08T07:20:21;36.70;;;23.90;;
60464;SDS011;46314;52.392;9.758;2024-03-08T07:22:47;43.20;;;24.77;;
60464;SDS011;46314;52.392;9.758;2024-03-08T07:25:14;44.58;;;25.25;;
60464;SDS011;46314;52.392;9.758;2024-03-08T07:27:41;41.20;;;25.40;;
60464;SDS011;46314;52.392;9.758;2024-03-08T07:30:09;40.75;;;25.98;;
60464;SDS011;46314;52.392;9.758;2024-03-08T07:32:36;39.75;;;23.42;;
60464;SDS011;46314;52.392;9.758;2024-03-08T07:35:03;38.60;;;23.23;;
60464;SDS011;46314;52.392;9.758;2024-03-08T07:37:30;36.30;;;24.45;;
60464;SDS011;46314;52.392;9.758;2024-03-08T07:39:57;38.40;;;24.35;;
60464;SDS011;46314;52.392;9.758;2024-03-08T07:42:23;35.03;;;22.27;;
60464;SDS011;46314;52.392;9.758;2024-03-08T07:44:50;37.00;;;23.33;;
60464;SDS011;46314;52.392;9.758;2024-03-08T07:47:18;36.05;;;22.85;;
60464;SDS011;46314;52.392;9.758;2024-03-08T07:49:47;36.72;;;24.52;;
60464;SDS011;46314;52.392;9.758;2024-03-08T07:52:13;34.90;;;23.30;;
60464;SDS011;46314;52.392;9.758;2024-03-08T07:54:40;35.72;;;25.15;;
60464;SDS011;46314;52.392;9.758;2024-03-08T07:57:06;33.67;;;23.23;;
60464;SDS011;46314;52.392;9.758;2024-03-08T07:59:33;32.83;;;24.00;;
60464;SDS011;46314;52.392;9.758;2024-03-08T08:01:59;34.78;;;24.75;;
60464;SDS011;46314;52.392;9.758;2024-03-08T08:04:27;41.03;;;23.65;;
60464;SDS011;46314;52.392;9.758;2024-03-08T08:06:54;38.58;;;21.67;;
60464;SDS011;46314;52.392;9.758;2024-03-08T08:09:20;36.25;;;24.95;;
60464;SDS011;46314;52.392;9.758;2024-03-08T08:11:46;36.25;;;23.52;;
60464;SDS011;46314;52.392;9.758;2024-03-08T08:14:13;37.70;;;23.70;;
60464;SDS011;46314;52.392;9.758;2024-03-08T08:16:39;39.13;;;24.67;;
60464;SDS011;46314;52.392;9.758;2024-03-08T08:19:06;33.90;;;24.45;;
60464;SDS011;46314;52.392;9.758;2024-03-08T08:21:34;35.75;;;23.73;;
60464;SDS011;46314;52.392;9.758;2024-03-08T08:24:01;36.40;;;24.10;;
60464;SDS011;46314;52.392;9.758;2024-03-08T08:26:27;37.65;;;25.45;;
60464;SDS011;46314;52.392;9.758;2024-03-08T08:28:54;34.28;;;23.52;;
60464;SDS011;46314;52.392;9.758;2024-03-08T08:31:20;40.30;;;25.83;;
60464;SDS011;46314;52.392;9.758;2024-03-08T08:33:47;36.38;;;26.15;;
60464;SDS011;46314;52.392;9.758;2024-03-08T08:36:15;33.22;;;23.80;;
60464;SDS011;46314;52.392;9.758;2024-03-08T08:38:43;41.67;;;25.77;;
60464;SDS011;46314;52.392;9.758;2024-03-08T08:41:11;35.80;;;24.13;;
60464;SDS011;46314;52.392;9.758;2024-03-08T08:43:37;35.92;;;24.63;;
60464;SDS011;46314;52.392;9.758;2024-03-08T08:46:16;35.50;;;24.10;;
60464;SDS011;46314;52.392;9.758;2024-03-08T08:48:44;41.95;;;22.67;;
60464;SDS011;46314;52.392;9.758;2024-03-08T08:51:11;34.03;;;23.67;;
60464;SDS011;46314;52.392;9.758;2024-03-08T08:53:37;38.55;;;25.23;;
60464;SDS011;46314;52.392;9.758;2024-03-08T08:56:06;38.00;;;27.50;;
60464;SDS011;46314;52.392;9.758;2024-03-08T08:58:32;38.00;;;26.20;;
60464;SDS011;46314;52.392;9.758;2024-03-08T09:00:59;38.28;;;23.85;;
60464;SDS011;46314;52.392;9.758;2024-03-08T09:03:25;32.70;;;23.35;;
60464;SDS011;46314;52.392;9.758;2024-03-08T09:05:51;37.47;;;24.67;;
60464;SDS011;46314;52.392;9.758;2024-03-08T09:08:18;33.70;;;25.55;;
60464;SDS011;46314;52.392;9.758;2024-03-08T09:10:44;34.97;;;25.02;;
60464;SDS011;46314;52.392;9.758;2024-03-08T09:13:15;31.52;;;23.40;;
60464;SDS011;46314;52.392;9.758;2024-03-08T09:15:56;34.38;;;25.65;;
60464;SDS011;46314;52.392;9.758;2024-03-08T09:18:22;35.28;;;24.92;;
60464;SDS011;46314;52.392;9.758;2024-03-08T09:20:49;38.15;;;25.13;;
60464;SDS011;46314;52.392;9.758;2024-03-08T09:23:15;34.17;;;24.15;;
60464;SDS011;46314;52.392;9.758;2024-03-08T09:25:42;31.10;;;23.73;;
60464;SDS011;46314;52.392;9.758;2024-03-08T09:28:11;34.22;;;25.60;;
60464;SDS011;46314;52.392;9.758;2024-03-08T09:30:39;31.67;;;22.75;;
60464;SDS011;46314;52.392;9.758;2024-03-08T09:33:09;31.73;;;24.00;;
60464;SDS011;46314;52.392;9.758;2024-03-08T09:35:36;36.83;;;24.75;;
60464;SDS011;46314;52.392;9.758;2024-03-08T09:38:03;33.03;;;24.00;;
60464;SDS011;46314;52.392;9.758;2024-03-08T09:40:29;30.20;;;22.70;;
60464;SDS011;46314;52.392;9.758;2024-03-08T09:42:56;32.05;;;24.13;;
60464;SDS011;46314;52.392;9.758;2024-03-08T09:45:23;32.20;;;24.05;;
60464;SDS011;46314;52.392;9.758;2024-03-08T09:47:54;31.58;;;23.25;;
60464;SDS011;46314;52.392;9.758;2024-03-08T09:50:20;32.38;;;23.75;;
60464;SDS011;46314;52.392;9.758;2024-03-08T09:52:48;31.95;;;23.60;;
60464;SDS011;46314;52.392;9.758;2024-03-08T09:55:15;33.65;;;23.25;;
60464;SDS011;46314;52.392;9.758;2024-03-08T09:57:42;30.95;;;23.85;;
60464;SDS011;46314;52.392;9.758;2024-03-08T10:00:10;32.88;;;23.25;;
60464;SDS011;46314;52.392;9.758;2024-03-08T10:02:39;31.23;;;23.70;;
60464;SDS011;46314;52.392;9.758;2024-03-08T10:05:07;38.50;;;23.42;;
60464;SDS011;46314;52.392;9.758;2024-03-08T10:07:34;34.65;;;24.85;;
60464;SDS011;46314;52.392;9.758;2024-03-08T10:10:01;34.58;;;23.80;;
60464;SDS011;46314;52.392;9.758;2024-03-08T10:12:27;33.42;;;23.25;;
60464;SDS011;46314;52.392;9.758;2024-03-08T10:14:54;32.03;;;22.63;;
60464;SDS011;46314;52.392;9.758;2024-03-08T10:17:21;29.27;;;23.02;;
60464;SDS011;46314;52.392;9.758;2024-03-08T10:19:51;30.85;;;22.20;;
60464;SDS011;46314;52.392;9.758;2024-03-08T10:22:19;30.90;;;24.48;;
60464;SDS011;46314;52.392;9.758;2024-03-08T10:24:46;32.15;;;22.83;;
60464;SDS011;46314;52.392;9.758;2024-03-08T10:27:12;31.90;;;23.15;;
60464;SDS011;46314;52.392;9.758;2024-03-08T10:29:39;29.73;;;22.88;;
60464;SDS011;46314;52.392;9.758;2024-03-08T10:32:06;32.90;;;23.77;;
60464;SDS011;46314;52.392;9.758;2024-03-08T10:34:33;31.38;;;22.55;;
60464;SDS011;46314;52.392;9.758;2024-03-08T10:37:04;34.47;;;24.10;;
60464;SDS011;46314;52.392;9.758;2024-03-08T10:39:35;33.25;;;23.63;;
60464;SDS011;46314;52.392;9.758;2024-03-08T10:42:02;29.02;;;22.20;;
60464;SDS011;46314;52.392;9.758;2024-03-08T10:44:32;29.50;;;23.80;;
60464;SDS011;46314;52.392;9.758;2024-03-08T10:47:08;29.95;;;23.75;;
60464;SDS011;46314;52.392;9.758;2024-03-08T10:49:45;30.55;;;23.65;;
60464;SDS011;46314;52.392;9.758;2024-03-08T10:52:17;29.05;;;20.98;;
60464;SDS011;46314;52.392;9.758;2024-03-08T10:54:46;30.40;;;24.52;;
60464;SDS011;46314;52.392;9.758;2024-03-08T10:57:13;29.92;;;23.33;;
60464;SDS011;46314;52.392;9.758;2024-03-08T10:59:43;33.25;;;24.52;;
60464;SDS011;46314;52.392;9.758;2024-03-08T11:02:11;33.70;;;23.20;;
60464;SDS011;46314;52.392;9.758;2024-03-08T11:04:38;35.28;;;24.17;;
60464;SDS011;46314;52.392;9.758;2024-03-08T11:07:04;34.08;;;24.75;;
60464;SDS011;46314;52.392;9.758;2024-03-08T11:09:31;28.95;;;22.75;;
60464;SDS011;46314;52.392;9.758;2024-03-08T11:14:50;29.75;;;22.70;;
60464;SDS011;46314;52.392;9.758;2024-03-08T11:17:20;30.95;;;22.95;;
60464;SDS011;46314;52.392;9.758;2024-03-08T11:19:48;29.52;;;23.58;;
60464;SDS011;46314;52.392;9.758;2024-03-08T11:22:21;32.25;;;22.45;;
60464;SDS011;46314;52.392;9.758;2024-03-08T11:24:49;30.02;;;23.00;;
60464;SDS011;46314;52.392;9.758;2024-03-08T11:27:15;31.08;;;23.30;;
60464;SDS011;46314;52.392;9.758;2024-03-08T11:29:43;33.85;;;25.65;;
60464;SDS011;46314;52.392;9.758;2024-03-08T11:32:10;33.33;;;24.58;;
60464;SDS011;46314;52.392;9.758;2024-03-08T11:34:38;33.20;;;25.60;;
60464;SDS011;46314;52.392;9.758;2024-03-08T11:37:10;32.33;;;24.10;;
60464;SDS011;46314;52.392;9.758;2024-03-08T11:39:38;31.30;;;23.95;;
60464;SDS011;46314;52.392;9.758;2024-03-08T11:42:05;34.25;;;25.27;;
60464;SDS011;46314;52.392;9.758;2024-03-08T11:44:32;30.45;;;23.05;;
60464;SDS011;46314;52.392;9.758;2024-03-08T11:46:59;30.25;;;24.08;;
60464;SDS011;46314;52.392;9.758;2024-03-08T11:49:26;35.35;;;24.60;;
60464;SDS011;46314;52.392;9.758;2024-03-08T11:51:53;32.78;;;25.63;;
60464;SDS011;46314;52.392;9.758;2024-03-08T11:54:19;33.85;;;24.70;;
60464;SDS011;46314;52.392;9.758;2024-03-08T11:56:46;31.80;;;26.15;;
60464;SDS011;46314;52.392;9.758;2024-03-08T11:59:12;32.67;;;25.40;;
60464;SDS011;46314;52.392;9.758;2024-03-08T12:01:39;31.45;;;24.00;;
60464;SDS011;46314;52.392;9.758;2024-03-08T12:04:11;32.13;;;24.88;;
60464;SDS011;46314;52.392;9.758;2024-03-08T12:06:39;31.58;;;24.35;;
60464;SDS011;46314;52.392;9.758;2024-03-08T12:09:09;33.40;;;24.40;;
60464;SDS011;46314;52.392;9.758;2024-03-08T12:11:36;33.08;;;23.83;;
60464;SDS011;46314;52.392;9.758;2024-03-08T12:14:03;30.92;;;24.77;;
60464;SDS011;46314;52.392;9.758;2024-03-08T12:16:30;30.00;;;21.77;;
60464;SDS011;46314;52.392;9.758;2024-03-08T12:18:56;30.38;;;22.35;;
60464;SDS011;46314;52.392;9.758;2024-03-08T12:21:25;29.63;;;22.92;;
60464;SDS011;46314;52.392;9.758;2024-03-08T12:24:01;32.10;;;24.70;;
60464;SDS011;46314;52.392;9.758;2024-03-08T12:26:29;34.97;;;24.65;;
60464;SDS011;46314;52.392;9.758;2024-03-08T12:29:13;30.85;;;25.63;;
60464;SDS011;46314;52.392;9.758;2024-03-08T12:31:41;32.08;;;26.77;;
60464;SDS011;46314;52.392;9.758;2024-03-08T12:34:08;31.23;;;25.42;;
60464;SDS011;46314;52.392;9.758;2024-03-08T12:36:36;31.95;;;25.10;;
60464;SDS011;46314;52.392;9.758;2024-03-08T12:39:03;31.45;;;24.17;;
60464;SDS011;46314;52.392;9.758;2024-03-08T12:41:29;34.78;;;26.45;;
60464;SDS011;46314;52.392;9.758;2024-03-08T12:43:56;32.80;;;24.45;;
60464;SDS011;46314;52.392;9.758;2024-03-08T12:46:22;31.30;;;24.88;;
60464;SDS011;46314;52.392;9.758;2024-03-08T12:48:49;30.30;;;24.42;;
60464;SDS011;46314;52.392;9.758;2024-03-08T12:51:15;35.78;;;26.38;;
60464;SDS011;46314;52.392;9.758;2024-03-08T12:53:44;29.40;;;25.67;;
60464;SDS011;46314;52.392;9.758;2024-03-08T12:56:11;34.00;;;26.15;;
60464;SDS011;46314;52.392;9.758;2024-03-08T12:58:38;33.60;;;23.63;;
60464;SDS011;46314;52.392;9.758;2024-03-08T13:01:04;32.60;;;24.67;;
60464;SDS011;46314;52.392;9.758;2024-03-08T13:03:31;37.17;;;25.58;;
60464;SDS011;46314;52.392;9.758;2024-03-08T13:05:57;33.58;;;24.98;;
60464;SDS011;46314;52.392;9.758;2024-03-08T13:08:24;34.53;;;24.67;;
60464;SDS011;46314;52.392;9.758;2024-03-08T13:10:52;30.17;;;24.55;;
60464;SDS011;46314;52.392;9.758;2024-03-08T13:13:18;29.75;;;23.85;;
60464;SDS011;46314;52.392;9.758;2024-03-08T13:15:45;28.73;;;23.63;;
60464;SDS011;46314;52.392;9.758;2024-03-08T13:18:11;32.13;;;23.15;;
60464;SDS011;46314;52.392;9.758;2024-03-08T13:20:38;29.38;;;22.00;;
60464;SDS011;46314;52.392;9.758;2024-03-08T13:23:13;29.65;;;21.75;;
60464;SDS011;46314;52.392;9.758;2024-03-08T13:25:40;30.30;;;23.02;;
60464;SDS011;46314;52.392;9.758;2024-03-08T13:28:08;27.58;;;20.05;;
60464;SDS011;46314;52.392;9.758;2024-03-08T13:30:34;28.40;;;22.80;;
60464;SDS011;46314;52.392;9.758;2024-03-08T13:33:00;29.98;;;23.15;;
60464;SDS011;46314;52.392;9.758;2024-03-08T13:35:27;24.75;;;19.80;;
60464;SDS011;46314;52.392;9.758;2024-03-08T13:37:53;27.83;;;22.23;;
60464;SDS011;46314;52.392;9.758;2024-03-08T13:40:20;28.20;;;21.83;;
60464;SDS011;46314;52.392;9.758;2024-03-08T13:42:47;27.00;;;21.30;;
60464;SDS011;46314;52.392;9.758;2024-03-08T13:45:15;28.13;;;20.42;;
60464;SDS011;46314;52.392;9.758;2024-03-08T13:47:42;25.30;;;21.08;;
60464;SDS011;46314;52.392;9.758;2024-03-08T13:50:09;25.33;;;20.35;;
60464;SDS011;46314;52.392;9.758;2024-03-08T13:52:37;26.23;;;20.25;;
60464;SDS011;46314;52.392;9.758;2024-03-08T13:55:03;28.75;;;21.15;;
60464;SDS011;46314;52.392;9.758;2024-03-08T13:57:30;25.63;;;19.95;;
60464;SDS011;46314;52.392;9.758;2024-03-08T13:59:57;25.98;;;19.73;;
60464;SDS011;46314;52.392;9.758;2024-03-08T14:02:25;25.77;;;20.45;;
60464;SDS011;46314;52.392;9.758;2024-03-08T14:04:51;27.92;;;21.88;;
60464;SDS011;46314;52.392;9.758;2024-03-08T14:07:18;25.80;;;20.95;;
60464;SDS011;46314;52.392;9.758;2024-03-08T14:09:44;26.00;;;19.95;;
60464;SDS011;46314;52.392;9.758;2024-03-08T14:12:11;26.00;;;20.75;;
60464;SDS011;46314;52.392;9.758;2024-03-08T14:14:37;25.83;;;20.13;;
60464;SDS011;46314;52.392;9.758;2024-03-08T14:17:04;25.60;;;20.45;;
60464;SDS011;46314;52.392;9.758;2024-03-08T14:19:33;28.33;;;20.70;;
60464;SDS011;46314;52.392;9.758;2024-03-08T14:21:59;26.35;;;19.40;;
60464;SDS011;46314;52.392;9.758;2024-03-08T14:24:26;24.83;;;19.17;;